Time,TemperatureF,DewpointF,PressureIn,WindDirection,WindDirectionDegrees,WindSpeedMPH,WindSpeedGustMPH,Humidity,HourlyPrecipIn,Conditions,Clouds,dailyrainin,SoftwareType,DateUTC
2013-01-28 08:15:00,51.3,48.4,29.88,NE,45,0.0,0.0,90,0.00,,---,0.04,VWS V14.01,2013-01-28 14:15:00,
2013-01-28 08:20:00,51.4,48.6,29.88,NE,45,0.0,0.0,90,0.00,,---,0.00,VWS V14.01,2013-01-28 14:20:00,
2013-01-28 08:25:00,51.6,48.8,29.88,NE,45,0.0,0.0,90,0.00,,---,0.00,VWS V14.01,2013-01-28 14:25:00,
2013-01-28 08:30:00,51.8,49.3,29.88,NE,45,0.0,0.0,91,0.00,,---,0.00,VWS V14.01,2013-01-28 14:30:00,
2013-01-28 08:35:00,52.3,49.8,29.88,NE,45,0.0,0.0,91,0.00,,---,0.00,VWS V14.01,2013-01-28 14:35:00,
2013-01-28 08:40:00,52.7,50.2,29.88,NE,45,0.0,0.0,91,0.00,,---,0.00,VWS V14.01,2013-01-28 14:40:00,
2013-01-28 08:45:00,53.1,50.5,29.88,NE,45,0.0,0.0,91,0.00,,---,0.00,VWS V14.01,2013-01-28 14:45:00,
2013-01-28 08:50:00,53.4,50.9,29.88,NE,45,0.0,0.0,91,0.00,,---,0.00,VWS V14.01,2013-01-28 14:50:00,
2013-01-28 08:55:00,53.8,51.2,29.88,NE,45,0.0,0.0,91,0.00,,---,0.00,VWS V14.01,2013-01-28 14:55:00,
2013-01-28 09:00:00,54.5,51.9,29.88,NE,45,0.0,0.0,91,0.00,,---,0.00,VWS V14.01,2013-01-28 15:00:00,
2013-01-28 09:05:00,55.0,52.5,29.88,NE,45,0.0,0.0,91,0.00,,---,0.00,VWS V14.01,2013-01-28 15:05:00,
2013-01-28 09:10:00,55.9,53.4,29.88,NE,45,0.0,0.0,91,0.00,,---,0.00,VWS V14.01,2013-01-28 15:10:00,
2013-01-28 09:15:00,56.7,54.4,29.88,NE,45,0.0,0.0,92,0.00,,---,0.00,VWS V14.01,2013-01-28 15:15:00,
2013-01-28 09:20:00,57.0,54.4,29.88,NE,45,0.0,0.0,91,0.00,,---,0.00,VWS V14.01,2013-01-28 15:20:00,
2013-01-28 09:25:00,57.6,55.0,29.88,NE,45,0.0,0.0,91,0.00,,---,0.00,VWS V14.01,2013-01-28 15:25:00,
2013-01-28 09:30:00,58.1,55.5,29.88,NE,45,0.0,0.0,91,0.00,,---,0.00,VWS V14.01,2013-01-28 15:30:00,
2013-01-28 09:35:00,58.6,56.0,29.88,NE,45,0.0,0.0,91,0.00,,---,0.00,VWS V14.01,2013-01-28 15:35:00,
2013-01-28 09:40:00,59.4,56.7,29.88,NE,45,0.0,0.0,91,0.00,,---,0.00,VWS V14.01,2013-01-28 15:40:00,
2013-01-28 09:45:00,60.3,57.6,29.88,South,180,2.7,2.7,91,0.00,,---,0.00,VWS V14.01,2013-01-28 15:45:00,
2013-01-28 11:16:00,70.9,58.1,29.85,South,180,1.6,1.6,64,0.00,,---,0.00,VWS V14.01,2013-01-28 17:16:00,
2013-01-28 11:21:00,71.1,57.4,29.85,South,180,3.1,3.1,62,0.00,,---,0.00,VWS V14.01,2013-01-28 17:21:00,
2013-01-28 11:26:00,71.1,56.5,29.85,SW,225,2.7,2.7,60,0.00,,---,0.00,VWS V14.01,2013-01-28 17:26:00,
2013-01-28 11:31:00,71.4,56.4,29.85,SW,225,3.4,3.4,59,0.00,,---,0.00,VWS V14.01,2013-01-28 17:31:00,
2013-01-28 11:36:00,72.1,56.1,29.85,South,180,3.4,3.8,57,0.00,,---,0.00,VWS V14.01,2013-01-28 17:36:00,
2013-01-28 11:41:00,72.5,56.4,29.85,South,180,4.9,4.9,57,0.00,,---,0.00,VWS V14.01,2013-01-28 17:41:00,
2013-01-28 11:46:00,72.9,55.8,29.85,SW,225,2.0,4.7,55,0.00,,---,0.00,VWS V14.01,2013-01-28 17:46:00,
2013-01-28 11:51:00,73.4,55.2,29.85,SSE,158,2.0,2.7,53,0.00,,---,0.00,VWS V14.01,2013-01-28 17:51:00,
2013-01-28 11:56:00,73.6,54.9,29.85,SSW,202,0.9,2.7,52,0.00,,---,0.00,VWS V14.01,2013-01-28 17:56:00,
2013-01-28 12:01:00,73.6,54.9,29.82,South,180,3.4,3.8,52,0.00,,---,0.00,VWS V14.01,2013-01-28 18:01:00,
2013-01-28 12:06:00,74.5,56.2,29.82,South,180,1.1,4.3,53,0.00,,---,0.00,VWS V14.01,2013-01-28 18:06:00,
2013-01-28 12:11:00,74.7,55.9,29.82,South,180,2.5,2.5,52,0.00,,---,0.00,VWS V14.01,2013-01-28 18:11:00,
2013-01-28 12:16:00,75.2,56.4,29.82,SE,135,0.0,1.3,52,0.00,,---,0.00,VWS V14.01,2013-01-28 18:16:00,
2013-01-28 12:21:00,75.0,55.7,29.82,South,180,0.9,2.5,51,0.00,,---,0.00,VWS V14.01,2013-01-28 18:21:00,
2013-01-28 12:26:00,75.2,55.8,29.82,SW,225,3.1,3.6,51,0.00,,---,0.00,VWS V14.01,2013-01-28 18:26:00,
2013-01-28 12:31:00,75.6,55.6,29.82,SSW,202,2.9,3.4,50,0.00,,---,0.00,VWS V14.01,2013-01-28 18:31:00,
2013-01-28 12:36:00,75.7,55.8,29.82,SW,225,3.1,3.6,50,0.00,,---,0.00,VWS V14.01,2013-01-28 18:36:00,
2013-01-28 12:41:00,75.7,54.7,29.82,SSE,158,1.3,6.5,48,0.00,,---,0.00,VWS V14.01,2013-01-28 18:41:00,
2013-01-28 12:46:00,75.9,55.4,29.79,SSE,158,2.0,3.4,49,0.00,,---,0.00,VWS V14.01,2013-01-28 18:46:00,
2013-01-28 12:51:00,76.1,55.0,29.79,SSE,158,3.6,6.5,48,0.00,,---,0.00,VWS V14.01,2013-01-28 18:51:00,
2013-01-28 12:56:00,76.1,55.0,29.79,South,180,2.0,5.6,48,0.00,,---,0.00,VWS V14.01,2013-01-28 18:56:00,
2013-01-28 13:01:00,76.1,55.0,29.79,SE,135,0.0,3.4,48,0.00,,---,0.00,VWS V14.01,2013-01-28 19:01:00,
2013-01-28 13:06:00,75.9,54.8,29.79,South,180,2.0,2.0,48,0.00,,---,0.00,VWS V14.01,2013-01-28 19:06:00,
2013-01-28 13:11:00,76.1,55.0,29.79,ESE,112,2.9,2.9,48,0.00,,---,0.00,VWS V14.01,2013-01-28 19:11:00,
2013-01-28 13:16:00,76.6,55.5,29.79,SW,225,3.4,4.7,48,0.00,,---,0.00,VWS V14.01,2013-01-28 19:16:00,
2013-01-28 13:21:00,77.0,55.2,29.79,West,270,5.8,5.8,47,0.00,,---,0.00,VWS V14.01,2013-01-28 19:21:00,
2013-01-28 13:26:00,77.0,54.1,29.79,WSW,248,6.0,8.5,45,0.00,,---,0.00,VWS V14.01,2013-01-28 19:26:00,
2013-01-28 13:31:00,76.8,54.5,29.76,East,90,0.9,3.1,46,0.00,,---,0.00,VWS V14.01,2013-01-28 19:31:00,
2013-01-28 13:36:00,77.0,54.7,29.76,SW,225,4.5,6.3,46,0.00,,---,0.00,VWS V14.01,2013-01-28 19:36:00,
2013-01-28 13:41:00,76.6,54.3,29.76,West,270,3.4,3.4,46,0.00,,---,0.00,VWS V14.01,2013-01-28 19:41:00,
2013-01-28 13:46:00,76.8,54.5,29.76,SW,225,1.6,5.8,46,0.00,,---,0.00,VWS V14.01,2013-01-28 19:46:00,
2013-01-28 13:51:00,76.8,55.1,29.76,South,180,2.5,5.8,47,0.00,,---,0.00,VWS V14.01,2013-01-28 19:51:00,
2013-01-28 13:56:00,76.6,54.9,29.76,SW,225,5.6,5.8,47,0.00,,---,0.00,VWS V14.01,2013-01-28 19:56:00,
2013-01-28 14:01:00,76.8,55.1,29.76,SE,135,3.6,3.6,47,0.00,,---,0.00,VWS V14.01,2013-01-28 20:01:00,
2013-01-28 14:06:00,77.0,55.2,29.76,South,180,4.3,4.3,47,0.00,,---,0.00,VWS V14.01,2013-01-28 20:06:00,
2013-01-28 14:11:00,77.2,55.4,29.76,SE,135,4.9,8.7,47,0.00,,---,0.00,VWS V14.01,2013-01-28 20:11:00,
2013-01-28 14:16:00,77.4,55.0,29.76,South,180,1.3,5.6,46,0.00,,---,0.00,VWS V14.01,2013-01-28 20:16:00,
2013-01-28 14:21:00,77.4,55.0,29.76,South,180,2.9,6.0,46,0.00,,---,0.00,VWS V14.01,2013-01-28 20:21:00,
2013-01-28 14:26:00,77.4,55.0,29.76,SSW,202,1.1,11.0,46,0.00,,---,0.00,VWS V14.01,2013-01-28 20:26:00,
2013-01-28 14:31:00,77.4,54.4,29.76,SW,225,1.6,8.5,45,0.00,,---,0.00,VWS V14.01,2013-01-28 20:31:00,
2013-01-28 14:36:00,77.2,54.8,29.76,SW,225,0.0,1.6,46,0.00,,---,0.00,VWS V14.01,2013-01-28 20:36:00,
2013-01-28 14:41:00,76.8,55.1,29.76,South,180,4.3,4.3,47,0.00,,---,0.00,VWS V14.01,2013-01-28 20:41:00,
2013-01-28 14:46:00,76.5,54.8,29.76,SSE,158,4.9,4.9,47,0.00,,---,0.00,VWS V14.01,2013-01-28 20:46:00,
2013-01-28 14:51:00,75.6,54.5,29.76,SW,225,3.1,6.3,48,0.00,,---,0.00,VWS V14.01,2013-01-28 20:51:00,
2013-01-28 14:56:00,75.6,55.1,29.76,South,180,2.9,5.6,49,0.00,,---,0.00,VWS V14.01,2013-01-28 20:56:00,
2013-01-28 15:01:00,76.1,55.6,29.76,SW,225,3.6,3.8,49,0.00,,---,0.00,VWS V14.01,2013-01-28 21:01:00,
2013-01-28 15:06:00,76.1,55.6,29.76,SE,135,1.6,6.3,49,0.00,,---,0.00,VWS V14.01,2013-01-28 21:06:00,
2013-01-28 15:11:00,75.6,55.6,29.76,SE,135,1.6,1.6,50,0.00,,---,0.00,VWS V14.01,2013-01-28 21:11:00,
2013-01-28 15:16:00,75.2,55.3,29.74,South,180,4.5,4.5,50,0.00,,---,0.00,VWS V14.01,2013-01-28 21:16:00,
2013-01-28 15:21:00,75.2,55.8,29.74,SSE,158,4.0,4.0,51,0.00,,---,0.00,VWS V14.01,2013-01-28 21:21:00,
2013-01-28 15:26:00,75.4,56.0,29.74,South,180,4.3,4.3,51,0.00,,---,0.00,VWS V14.01,2013-01-28 21:26:00,
2013-01-28 15:31:00,75.6,56.2,29.74,SW,225,7.2,9.4,51,0.00,,---,0.00,VWS V14.01,2013-01-28 21:31:00,
2013-01-28 15:36:00,75.2,55.8,29.74,SW,225,2.7,2.7,51,0.00,,---,0.00,VWS V14.01,2013-01-28 21:36:00,
2013-01-28 15:41:00,75.0,55.7,29.74,SW,225,2.2,2.7,51,0.00,,---,0.00,VWS V14.01,2013-01-28 21:41:00,
2013-01-28 15:46:00,74.8,55.0,29.74,South,180,5.6,6.0,50,0.00,,---,0.00,VWS V14.01,2013-01-28 21:46:00,
2013-01-28 15:51:00,74.5,54.6,29.74,SSE,158,0.0,2.2,50,0.00,,---,0.00,VWS V14.01,2013-01-28 21:51:00,
2013-01-28 15:56:00,74.5,55.2,29.74,South,180,1.1,5.4,51,0.00,,---,0.00,VWS V14.01,2013-01-28 21:56:00,
2013-01-28 16:01:00,74.3,55.0,29.74,SSW,202,6.3,6.3,51,0.00,,---,0.00,VWS V14.01,2013-01-28 22:01:00,
2013-01-28 16:06:00,74.1,54.9,29.74,SW,225,3.6,3.6,51,0.00,,---,0.00,VWS V14.01,2013-01-28 22:06:00,
2013-01-28 16:11:00,74.1,54.9,29.74,South,180,1.6,3.1,51,0.00,,---,0.00,VWS V14.01,2013-01-28 22:11:00,
2013-01-28 16:16:00,74.1,54.9,29.74,South,180,0.0,3.6,51,0.00,,---,0.00,VWS V14.01,2013-01-28 22:16:00,
2013-01-28 16:21:00,73.6,54.9,29.74,SE,135,2.7,6.0,52,0.00,,---,0.00,VWS V14.01,2013-01-28 22:21:00,
2013-01-28 16:26:00,73.4,55.2,29.74,SSW,202,3.6,3.6,53,0.00,,---,0.00,VWS V14.01,2013-01-28 22:26:00,
2013-01-28 16:31:00,73.2,55.1,29.74,South,180,1.3,3.8,53,0.00,,---,0.00,VWS V14.01,2013-01-28 22:31:00,
2013-01-28 16:36:00,73.0,55.4,29.74,South,180,3.4,3.4,54,0.00,,---,0.00,VWS V14.01,2013-01-28 22:36:00,
2013-01-28 16:41:00,72.9,55.8,29.74,SW,225,2.9,4.3,55,0.00,,---,0.00,VWS V14.01,2013-01-28 22:41:00,
2013-01-28 16:46:00,72.9,56.3,29.71,SE,135,2.5,3.1,56,0.00,,---,0.00,VWS V14.01,2013-01-28 22:46:00,
2013-01-28 16:51:00,72.7,56.1,29.71,South,180,0.0,2.5,56,0.00,,---,0.00,VWS V14.01,2013-01-28 22:51:00,
2013-01-28 16:56:00,72.5,56.4,29.71,SW,225,0.9,2.2,57,0.00,,---,0.00,VWS V14.01,2013-01-28 22:56:00,
2013-01-28 17:01:00,72.1,56.6,29.71,South,180,1.6,4.0,58,0.00,,---,0.00,VWS V14.01,2013-01-28 23:01:00,
2013-01-28 17:06:00,72.0,56.9,29.71,SSE,158,1.3,1.3,59,0.00,,---,0.00,VWS V14.01,2013-01-28 23:06:00,
2013-01-28 17:11:00,72.0,57.3,29.71,South,180,1.1,2.5,60,0.00,,---,0.00,VWS V14.01,2013-01-28 23:11:00,
2013-01-28 17:16:00,71.6,57.5,29.71,East,90,1.1,1.1,61,0.00,,---,0.00,VWS V14.01,2013-01-28 23:16:00,
2013-01-28 17:21:00,71.2,57.6,29.71,SE,135,0.0,0.0,62,0.00,,---,0.00,VWS V14.01,2013-01-28 23:21:00,
2013-01-28 17:26:00,70.9,57.7,29.71,SW,225,0.0,0.0,63,0.00,,---,0.00,VWS V14.01,2013-01-28 23:26:00,
2013-01-28 17:31:00,70.9,58.1,29.71,SE,135,2.7,2.9,64,0.00,,---,0.00,VWS V14.01,2013-01-28 23:31:00,
2013-01-28 17:36:00,70.7,58.4,29.71,SE,135,0.0,1.3,65,0.00,,---,0.00,VWS V14.01,2013-01-28 23:36:00,
2013-01-28 17:41:00,70.3,58.0,29.71,SSE,158,1.1,1.1,65,0.00,,---,0.00,VWS V14.01,2013-01-28 23:41:00,
2013-01-28 17:46:00,70.0,58.5,29.71,SE,135,1.3,2.5,67,0.00,,---,0.00,VWS V14.01,2013-01-28 23:46:00,
2013-01-28 17:51:00,69.8,58.4,29.71,NE,45,0.9,1.1,67,0.00,,---,0.00,VWS V14.01,2013-01-28 23:51:00,
2013-01-28 17:56:00,69.8,58.8,29.71,SSE,158,1.1,1.1,68,0.00,,---,0.00,VWS V14.01,2013-01-28 23:56:00,
2013-01-28 18:01:00,69.6,59.4,29.71,South,180,0.0,2.0,70,0.00,,---,0.00,VWS V14.01,2013-01-29 00:01:00,
2013-01-28 18:06:00,69.6,59.4,29.71,SE,135,0.0,2.0,70,0.00,,---,0.00,VWS V14.01,2013-01-29 00:06:00,
2013-01-28 18:11:00,69.6,59.4,29.71,SE,135,2.5,2.5,70,0.00,,---,0.00,VWS V14.01,2013-01-29 00:11:00,
2013-01-28 18:16:00,69.4,59.6,29.71,ESE,112,0.0,2.9,71,0.00,,---,0.00,VWS V14.01,2013-01-29 00:16:00,
2013-01-28 18:21:00,69.4,59.6,29.71,SE,135,2.9,2.9,71,0.00,,---,0.00,VWS V14.01,2013-01-29 00:21:00,
2013-01-28 18:26:00,69.4,59.6,29.71,South,180,2.9,4.9,71,0.00,,---,0.00,VWS V14.01,2013-01-29 00:26:00,
2013-01-28 18:31:00,69.4,59.6,29.71,South,180,1.6,2.9,71,0.00,,---,0.00,VWS V14.01,2013-01-29 00:31:00,
2013-01-28 18:36:00,69.3,59.5,29.71,South,180,0.0,2.5,71,0.00,,---,0.00,VWS V14.01,2013-01-29 00:36:00,
2013-01-28 18:41:00,69.4,59.6,29.71,South,180,2.9,2.9,71,0.00,,---,0.00,VWS V14.01,2013-01-29 00:41:00,
2013-01-28 18:46:00,69.3,59.5,29.71,South,180,2.9,2.9,71,0.00,,---,0.00,VWS V14.01,2013-01-29 00:46:00,
2013-01-28 18:51:00,69.3,59.5,29.71,South,180,6.3,6.3,71,0.00,,---,0.00,VWS V14.01,2013-01-29 00:51:00,
2013-01-28 18:56:00,69.3,59.5,29.71,SE,135,0.0,1.1,71,0.00,,---,0.00,VWS V14.01,2013-01-29 00:56:00,
2013-01-28 19:01:00,69.1,59.3,29.71,South,180,3.4,3.4,71,0.00,,---,0.00,VWS V14.01,2013-01-29 01:01:00,
2013-01-28 19:06:00,69.1,59.3,29.71,ESE,112,1.3,1.3,71,0.00,,---,0.00,VWS V14.01,2013-01-29 01:06:00,
2013-01-28 19:11:00,68.9,59.1,29.71,South,180,0.0,0.0,71,0.00,,---,0.00,VWS V14.01,2013-01-29 01:11:00,
2013-01-28 19:16:00,68.7,59.0,29.71,South,180,0.0,0.0,71,0.00,,---,0.00,VWS V14.01,2013-01-29 01:16:00,
2013-01-28 19:21:00,68.7,59.3,29.71,SE,135,0.0,4.0,72,0.00,,---,0.00,VWS V14.01,2013-01-29 01:21:00,
2013-01-28 19:26:00,68.5,59.2,29.71,SSE,158,0.9,2.9,72,0.00,,---,0.00,VWS V14.01,2013-01-29 01:26:00,
2013-01-28 19:31:00,68.4,59.0,29.71,SE,135,1.1,1.1,72,0.00,,---,0.00,VWS V14.01,2013-01-29 01:31:00,
2013-01-28 19:36:00,68.4,59.4,29.71,SE,135,0.0,2.5,73,0.00,,---,0.00,VWS V14.01,2013-01-29 01:36:00,
2013-01-28 19:41:00,68.2,60.0,29.71,ESE,112,1.6,4.0,75,0.00,,---,0.00,VWS V14.01,2013-01-29 01:41:00,
2013-01-28 19:46:00,68.0,59.8,29.71,SW,225,8.7,8.7,75,0.00,,---,0.00,VWS V14.01,2013-01-29 01:46:00,
2013-01-28 19:51:00,67.8,60.0,29.71,SSE,158,2.7,2.7,76,0.00,,---,0.00,VWS V14.01,2013-01-29 01:51:00,
2013-01-28 19:56:00,67.8,60.3,29.71,South,180,2.9,3.8,77,0.00,,---,0.00,VWS V14.01,2013-01-29 01:56:00,
2013-01-28 20:01:00,67.6,60.2,29.74,South,180,2.7,2.7,77,0.00,,---,0.00,VWS V14.01,2013-01-29 02:01:00,
2013-01-28 20:06:00,67.6,60.5,29.74,SW,225,1.1,3.1,78,0.00,,---,0.00,VWS V14.01,2013-01-29 02:06:00,
2013-01-28 20:11:00,67.6,60.5,29.74,South,180,1.3,1.3,78,0.00,,---,0.00,VWS V14.01,2013-01-29 02:11:00,
2013-01-28 20:16:00,67.5,60.4,29.74,SE,135,2.0,2.7,78,0.00,,---,0.00,VWS V14.01,2013-01-29 02:16:00,
2013-01-28 20:21:00,67.5,60.7,29.74,South,180,1.6,7.2,79,0.00,,---,0.00,VWS V14.01,2013-01-29 02:21:00,
2013-01-28 20:26:00,67.3,60.5,29.74,SE,135,3.6,3.6,79,0.00,,---,0.00,VWS V14.01,2013-01-29 02:26:00,
2013-01-28 20:31:00,67.3,60.5,29.74,SE,135,1.3,1.3,79,0.00,,---,0.00,VWS V14.01,2013-01-29 02:31:00,
2013-01-28 20:36:00,67.3,60.9,29.74,South,180,0.0,6.3,80,0.00,,---,0.00,VWS V14.01,2013-01-29 02:36:00,
2013-01-28 20:41:00,67.3,60.5,29.74,South,180,0.9,0.9,79,0.00,,---,0.00,VWS V14.01,2013-01-29 02:41:00,
2013-01-28 20:46:00,67.1,60.7,29.71,SSE,158,1.3,1.3,80,0.00,,---,0.00,VWS V14.01,2013-01-29 02:46:00,
2013-01-28 20:51:00,67.1,60.7,29.71,South,180,4.0,4.0,80,0.00,,---,0.00,VWS V14.01,2013-01-29 02:51:00,
2013-01-28 20:56:00,67.1,60.7,29.71,SSE,158,1.1,1.6,80,0.00,,---,0.00,VWS V14.01,2013-01-29 02:56:00,
2013-01-28 21:01:00,67.1,61.1,29.71,South,180,4.0,4.0,81,0.00,,---,0.00,VWS V14.01,2013-01-29 03:01:00,
2013-01-28 21:06:00,67.1,61.1,29.71,South,180,3.6,3.6,81,0.00,,---,0.00,VWS V14.01,2013-01-29 03:06:00,
2013-01-28 21:11:00,66.9,60.9,29.71,SSW,202,3.4,5.6,81,0.00,,---,0.00,VWS V14.01,2013-01-29 03:11:00,
2013-01-28 21:16:00,66.9,60.9,29.71,South,180,2.9,2.9,81,0.00,,---,0.00,VWS V14.01,2013-01-29 03:16:00,
2013-01-28 21:21:00,66.7,60.7,29.71,SSE,158,0.0,0.0,81,0.00,,---,0.00,VWS V14.01,2013-01-29 03:21:00,
2013-01-28 21:26:00,66.7,61.1,29.71,West,270,2.5,2.5,82,0.00,,---,0.00,VWS V14.01,2013-01-29 03:26:00,
2013-01-28 21:31:00,66.6,60.6,29.71,SE,135,1.3,1.3,81,0.00,,---,0.00,VWS V14.01,2013-01-29 03:31:00,
2013-01-28 21:36:00,66.6,60.9,29.71,South,180,7.6,7.6,82,0.00,,---,0.00,VWS V14.01,2013-01-29 03:36:00,
2013-01-28 21:41:00,66.4,60.7,29.71,ESE,112,3.4,3.4,82,0.00,,---,0.00,VWS V14.01,2013-01-29 03:41:00,
2013-01-28 21:46:00,66.4,60.7,29.71,South,180,2.2,2.2,82,0.00,,---,0.00,VWS V14.01,2013-01-29 03:46:00,
2013-01-28 21:51:00,66.4,61.1,29.74,SSW,202,0.9,2.5,83,0.00,,---,0.00,VWS V14.01,2013-01-29 03:51:00,
2013-01-28 21:56:00,66.2,60.9,29.74,SE,135,2.7,4.7,83,0.00,,---,0.00,VWS V14.01,2013-01-29 03:56:00,
2013-01-28 22:01:00,66.2,60.9,29.71,South,180,2.2,2.2,83,0.00,,---,0.00,VWS V14.01,2013-01-29 04:01:00,
2013-01-28 22:06:00,66.0,61.0,29.71,East,90,2.5,2.5,84,0.00,,---,0.00,VWS V14.01,2013-01-29 04:06:00,
2013-01-28 22:11:00,66.2,61.6,29.71,SE,135,0.0,0.9,85,0.00,,---,0.00,VWS V14.01,2013-01-29 04:11:00,
2013-01-28 22:16:00,66.0,61.4,29.71,South,180,0.9,0.9,85,0.00,,---,0.00,VWS V14.01,2013-01-29 04:16:00,
2013-01-28 22:21:00,66.0,61.4,29.71,South,180,1.1,2.0,85,0.00,,---,0.00,VWS V14.01,2013-01-29 04:21:00,
2013-01-28 22:26:00,66.0,61.7,29.71,South,180,0.9,0.9,86,0.00,,---,0.00,VWS V14.01,2013-01-29 04:26:00,
2013-01-28 22:31:00,66.0,61.7,29.71,South,180,0.0,0.0,86,0.00,,---,0.00,VWS V14.01,2013-01-29 04:31:00,
2013-01-28 22:36:00,66.0,61.7,29.71,SSE,158,0.9,0.9,86,0.00,,---,0.00,VWS V14.01,2013-01-29 04:36:00,
2013-01-28 22:41:00,66.2,61.9,29.71,SE,135,0.0,0.0,86,0.00,,---,0.00,VWS V14.01,2013-01-29 04:41:00,
2013-01-28 22:46:00,66.4,62.1,29.71,South,180,2.0,3.6,86,0.00,,---,0.00,VWS V14.01,2013-01-29 04:46:00,
2013-01-28 22:51:00,66.7,62.4,29.71,ESE,112,2.5,3.4,86,0.00,,---,0.00,VWS V14.01,2013-01-29 04:51:00,
2013-01-28 22:56:00,66.9,62.6,29.71,South,180,3.6,3.6,86,0.00,,---,0.00,VWS V14.01,2013-01-29 04:56:00,
2013-01-28 23:00:00,67.1,62.8,29.71,South,180,2.0,2.9,86,0.00,,---,0.00,VWS V14.01,2013-01-29 05:00:00,
2013-01-28 23:01:00,67.1,62.8,29.71,South,180,1.6,2.9,86,0.00,,---,0.00,VWS V14.01,2013-01-29 05:01:00,
2013-01-28 23:06:00,67.3,62.6,29.71,SE,135,0.0,1.3,85,0.00,,---,0.00,VWS V14.01,2013-01-29 05:06:00,
2013-01-28 23:11:00,67.3,62.6,29.71,SW,225,2.0,2.0,85,0.00,,---,0.00,VWS V14.01,2013-01-29 05:11:00,
2013-01-28 23:16:00,67.5,62.8,29.71,SE,135,2.0,2.7,85,0.00,,---,0.00,VWS V14.01,2013-01-29 05:16:00,
2013-01-28 23:21:00,67.5,62.8,29.71,SE,135,3.6,3.6,85,0.00,,---,0.00,VWS V14.01,2013-01-29 05:21:00,
2013-01-28 23:26:00,67.5,62.8,29.71,South,180,3.6,3.6,85,0.00,,---,0.00,VWS V14.01,2013-01-29 05:26:00,
2013-01-28 23:31:00,67.8,63.2,29.71,SE,135,1.1,2.0,85,0.00,,---,0.00,VWS V14.01,2013-01-29 05:31:00,
2013-01-28 23:36:00,67.6,62.6,29.71,SW,225,0.0,2.2,84,0.00,,---,0.00,VWS V14.01,2013-01-29 05:36:00,
2013-01-28 23:41:00,67.6,62.6,29.71,South,180,0.0,1.3,84,0.00,,---,0.00,VWS V14.01,2013-01-29 05:41:00,
2013-01-28 23:46:00,67.5,62.8,29.71,SE,135,0.0,2.0,85,0.00,,---,0.00,VWS V14.01,2013-01-29 05:46:00,
2013-01-28 23:51:00,67.5,62.8,29.71,NE,45,4.0,4.0,85,0.00,,---,0.00,VWS V14.01,2013-01-29 05:51:00,
2013-01-28 23:56:00,67.3,62.6,29.71,South,180,0.9,1.1,85,0.00,,---,0.00,VWS V14.01,2013-01-29 05:56:00,